Time;durP1;ratioP1;P1;durP2;ratioP2;P2;SDS_P1;SDS_P2;PMS_P1;PMS_P2;Temp;Humidity;BMP_temperature;BMP_pressure;BME280_temperature;BME280_humidity;BME280_pressure;Samples;Min_cycle;Max_cycle;Signal;HPM_P1;HPM_P2
2022/07/22 04:01:43;;;;;;;14.23;12.73;;;15.50;99.90;;;;;;5376151;23;20761;-71
2022/07/22 04:04:09;;;;;;;16.60;13.18;;;15.50;99.90;;;;;;4974225;28;20047;-71
2022/07/22 04:06:34;;;;;;;14.10;12.60;;;15.40;99.90;;;;;;4974781;28;20433;-71
2022/07/22 04:09:00;;;;;;;13.38;12.00;;;15.40;99.90;;;;;;4974829;28;20043;-71
2022/07/22 04:11:26;;;;;;;13.38;12.07;;;15.40;99.90;;;;;;4974642;28;20130;-71
2022/07/22 04:13:52;;;;;;;14.50;12.57;;;15.40;99.90;;;;;;4974813;28;20083;-71
2022/07/22 04:16:18;;;;;;;14.23;12.45;;;15.50;99.90;;;;;;4973703;28;20071;-70
2022/07/22 04:18:43;;;;;;;14.65;13.10;;;15.50;99.90;;;;;;4974942;28;20043;-70
2022/07/22 04:21:09;;;;;;;16.48;13.57;;;15.50;99.90;;;;;;4975124;28;20035;-71
2022/07/22 04:23:35;;;;;;;14.20;12.77;;;15.50;99.90;;;;;;4977941;28;20031;-71
2022/07/22 04:26:00;;;;;;;15.27;13.68;;;15.60;99.90;;;;;;4977742;28;20033;-71
2022/07/22 04:28:26;;;;;;;15.52;13.43;;;15.60;99.90;;;;;;4976108;28;22614;-70
2022/07/22 04:30:51;;;;;;;16.73;13.73;;;15.70;99.90;;;;;;4977602;28;20031;-71
2022/07/22 04:33:17;;;;;;;14.55;12.68;;;15.70;99.90;;;;;;4977839;28;20035;-71
2022/07/22 04:35:43;;;;;;;14.13;12.63;;;15.70;99.90;;;;;;4977390;28;20078;-70
2022/07/22 04:38:09;;;;;;;16.08;12.93;;;15.80;99.90;;;;;;4977671;28;20039;-71
2022/07/22 04:40:34;;;;;;;14.55;12.98;;;15.90;99.90;;;;;;4977317;28;20035;-71
2022/07/22 04:43:00;;;;;;;14.93;13.05;;;15.90;99.90;;;;;;4976380;28;20134;-70
2022/07/22 04:45:25;;;;;;;14.75;12.68;;;16.00;99.90;;;;;;4975861;28;20040;-71
2022/07/22 04:47:51;;;;;;;15.25;12.70;;;16.00;99.90;;;;;;4977663;28;20489;-70
2022/07/22 04:50:16;;;;;;;14.95;13.35;;;16.10;99.90;;;;;;4977039;28;20042;-71
2022/07/22 04:52:42;;;;;;;14.23;12.52;;;16.10;99.90;;;;;;4977288;28;20039;-70
2022/07/22 04:55:08;;;;;;;14.65;12.43;;;16.10;99.90;;;;;;4977196;28;20043;-71
2022/07/22 04:57:33;;;;;;;14.45;13.00;;;16.20;99.90;;;;;;4977297;28;20039;-71
2022/07/22 04:59:59;;;;;;;14.90;13.18;;;16.20;99.90;;;;;;4977270;28;20035;-71
2022/07/22 05:02:24;;;;;;;15.23;13.13;;;16.20;99.90;;;;;;4975879;28;20039;-70
2022/07/22 05:04:50;;;;;;;16.17;13.43;;;16.30;99.90;;;;;;4973659;28;20041;-70
2022/07/22 05:07:15;;;;;;;15.60;13.93;;;16.30;99.90;;;;;;4977220;28;20035;-70
2022/07/22 05:09:41;;;;;;;19.10;13.90;;;16.40;99.90;;;;;;4977394;28;20099;-70
2022/07/22 05:12:07;;;;;;;15.05;13.10;;;16.50;99.90;;;;;;4975467;28;20035;-70
2022/07/22 05:14:32;;;;;;;15.57;13.98;;;16.60;99.90;;;;;;4976888;28;20091;-70
2022/07/22 05:16:58;;;;;;;16.13;12.93;;;16.70;99.90;;;;;;4977272;28;20477;-71
2022/07/22 05:19:23;;;;;;;16.30;13.57;;;16.80;99.90;;;;;;4977062;28;20043;-70
2022/07/22 05:21:49;;;;;;;18.65;13.45;;;16.90;99.90;;;;;;4976706;28;20046;-70
2022/07/22 05:24:14;;;;;;;15.95;12.90;;;17.00;99.90;;;;;;4976863;28;20043;-76
2022/07/22 05:26:40;;;;;;;15.25;12.93;;;17.10;99.90;;;;;;4976955;28;20039;-72
2022/07/22 05:29:05;;;;;;;14.38;12.52;;;17.20;99.90;;;;;;4977096;28;20082;-72
2022/07/22 05:31:31;;;;;;;16.63;13.50;;;17.30;99.90;;;;;;4975161;28;20046;-72
2022/07/22 05:33:57;;;;;;;14.75;13.18;;;17.40;99.90;;;;;;4976477;28;20480;-72
2022/07/22 05:36:23;;;;;;;15.35;13.00;;;17.50;99.90;;;;;;4976471;28;20422;-72
2022/07/22 05:38:48;;;;;;;14.02;12.52;;;17.50;99.90;;;;;;4976769;28;20051;-72
2022/07/22 05:41:14;;;;;;;15.20;13.13;;;17.60;99.90;;;;;;4977238;28;20106;-72
2022/07/22 05:43:40;;;;;;;14.52;12.88;;;17.70;99.90;;;;;;4978933;28;20410;-72
2022/07/22 05:46:07;;;;;;;16.73;12.65;;;17.90;99.90;;;;;;4976530;28;20067;-72
2022/07/22 05:48:32;;;;;;;15.25;11.98;;;17.90;99.90;;;;;;4978242;28;20774;-74
2022/07/22 05:50:58;;;;;;;16.48;12.77;;;18.10;99.90;;;;;;4976451;28;20039;-72
2022/07/22 05:53:24;;;;;;;13.38;11.40;;;18.10;99.90;;;;;;4976625;28;20074;-72
2022/07/22 05:55:49;;;;;;;14.90;12.02;;;18.30;99.90;;;;;;4976051;28;20038;-72
2022/07/22 05:58:15;;;;;;;13.18;11.75;;;18.40;99.90;;;;;;4976416;28;20047;-72
2022/07/22 06:00:41;;;;;;;12.63;10.30;;;18.40;99.90;;;;;;4975766;28;20086;-73
2022/07/22 06:03:07;;;;;;;13.55;10.40;;;18.50;99.90;;;;;;4976637;28;20062;-72
2022/07/22 06:05:32;;;;;;;12.13;9.70;;;18.60;99.90;;;;;;4975992;28;20058;-73
2022/07/22 06:07:58;;;;;;;13.40;9.55;;;18.70;99.90;;;;;;4976541;28;20114;-72
2022/07/22 06:10:23;;;;;;;11.57;9.73;;;18.80;99.90;;;;;;4976333;28;20031;-72
2022/07/22 06:12:49;;;;;;;12.90;9.52;;;18.90;99.90;;;;;;4976442;28;20048;-73
2022/07/22 06:15:14;;;;;;;12.32;10.00;;;19.00;99.90;;;;;;4976357;28;20031;-74
2022/07/22 06:17:40;;;;;;;11.93;10.27;;;19.00;99.90;;;;;;4976692;28;20043;-74
2022/07/22 06:20:06;;;;;;;13.13;9.80;;;19.10;99.90;;;;;;4976417;28;20536;-72
2022/07/22 06:22:31;;;;;;;13.18;9.88;;;19.10;99.90;;;;;;4976389;28;20485;-76
2022/07/22 06:24:57;;;;;;;11.68;9.65;;;19.20;99.90;;;;;;4977363;28;20086;-78
2022/07/22 06:27:22;;;;;;;14.90;9.65;;;19.30;99.90;;;;;;4976565;28;20536;-74
2022/07/22 06:29:48;;;;;;;12.50;9.20;;;19.40;99.90;;;;;;4976599;28;20445;-74
2022/07/22 06:32:14;;;;;;;10.40;8.85;;;19.50;99.90;;;;;;4975985;28;20596;-75
2022/07/22 06:34:39;;;;;;;11.35;8.88;;;19.50;99.90;;;;;;4975848;28;20047;-77
2022/07/22 06:37:05;;;;;;;9.25;8.02;;;19.60;99.90;;;;;;4977355;28;20035;-76
2022/07/22 06:39:30;;;;;;;11.75;8.50;;;19.70;99.90;;;;;;4977155;28;20183;-75
2022/07/22 06:41:56;;;;;;;10.73;8.00;;;19.70;99.90;;;;;;4975354;28;20081;-76
2022/07/22 06:44:22;;;;;;;9.77;8.30;;;19.80;99.90;;;;;;4975841;28;20095;-75
2022/07/22 06:46:48;;;;;;;12.25;8.68;;;19.80;99.90;;;;;;4977545;28;20078;-78
2022/07/22 06:49:14;;;;;;;10.02;8.85;;;19.90;99.90;;;;;;4979207;28;20037;-79
2022/07/22 06:51:39;;;;;;;10.45;8.15;;;20.00;99.90;;;;;;4981657;28;20042;-76
2022/07/22 06:54:05;;;;;;;12.30;9.10;;;20.10;99.90;;;;;;4978386;28;20191;-77
2022/07/22 06:56:31;;;;;;;9.60;8.57;;;20.20;99.90;;;;;;4978149;28;20066;-78
2022/07/22 06:58:56;;;;;;;12.43;8.05;;;20.20;99.90;;;;;;4979505;28;20035;-78
2022/07/22 07:01:22;;;;;;;11.45;9.18;;;20.30;99.90;;;;;;4979992;28;20409;-78
2022/07/22 07:03:47;;;;;;;10.13;7.68;;;20.40;99.90;;;;;;4979871;28;20035;-79
2022/07/22 07:06:13;;;;;;;15.70;8.10;;;20.50;99.90;;;;;;4975758;28;20031;-76
2022/07/22 07:08:39;;;;;;;12.63;7.85;;;20.70;99.90;;;;;;4975663;28;20035;-77
2022/07/22 07:11:05;;;;;;;10.70;8.25;;;20.90;99.90;;;;;;4974716;28;20070;-76
2022/07/22 07:13:31;;;;;;;8.55;7.50;;;21.00;99.90;;;;;;4976374;28;20126;-75
2022/07/22 07:15:57;;;;;;;11.40;7.93;;;21.20;99.90;;;;;;4977865;28;20065;-72
2022/07/22 07:18:22;;;;;;;11.73;8.23;;;21.30;99.90;;;;;;4978170;28;20514;-77
2022/07/22 07:20:48;;;;;;;11.07;7.95;;;21.50;99.90;;;;;;4977663;28;20199;-72
2022/07/22 07:23:13;;;;;;;9.73;7.63;;;21.70;99.90;;;;;;4977423;28;20047;-72
2022/07/22 07:25:39;;;;;;;11.65;7.22;;;21.80;99.90;;;;;;4976885;28;20035;-74
2022/07/22 07:28:05;;;;;;;10.57;7.80;;;22.00;99.90;;;;;;4977685;28;20059;-72
2022/07/22 07:30:30;;;;;;;11.50;7.57;;;22.20;99.90;;;;;;4978170;28;20066;-72
2022/07/22 07:32:56;;;;;;;11.70;7.95;;;22.40;99.90;;;;;;4977378;28;20114;-73
2022/07/22 07:35:22;;;;;;;9.30;7.97;;;22.50;99.90;;;;;;4977417;28;20035;-73
2022/07/22 07:37:47;;;;;;;10.15;7.18;;;22.60;99.90;;;;;;4977213;28;20047;-72
2022/07/22 07:40:14;;;;;;;11.35;7.63;;;22.60;99.90;;;;;;4976320;28;20040;-73
2022/07/22 07:42:39;;;;;;;10.73;7.20;;;22.80;99.90;;;;;;4976017;28;20031;-72
2022/07/22 07:45:05;;;;;;;12.30;7.88;;;22.90;99.90;;;;;;4976819;28;20421;-73
2022/07/22 07:47:31;;;;;;;7.95;6.53;;;23.20;99.90;;;;;;4974709;28;20031;-81
2022/07/22 07:49:59;;;;;;;12.40;7.57;;;23.60;99.90;;;;;;4976516;28;20043;-73
2022/07/22 07:52:24;;;;;;;10.75;7.65;;;23.90;99.90;;;;;;4976021;28;20028;-74
2022/07/22 07:54:50;;;;;;;12.30;7.68;;;24.10;99.90;;;;;;4975970;28;20054;-73
2022/07/22 07:57:16;;;;;;;9.80;7.70;;;24.40;99.90;;;;;;4973049;28;20560;-73
2022/07/22 07:59:41;;;;;;;10.25;7.45;;;24.60;99.90;;;;;;4979207;28;20049;-74
2022/07/22 08:02:07;;;;;;;9.25;7.55;;;24.50;99.90;;;;;;4978416;28;20125;-74
2022/07/22 08:04:34;;;;;;;9.80;6.75;;;24.70;99.90;;;;;;4979471;28;20389;-73
2022/07/22 08:07:00;;;;;;;8.77;7.25;;;24.70;99.90;;;;;;4979210;28;20071;-73
2022/07/22 08:09:26;;;;;;;10.40;7.10;;;24.90;99.90;;;;;;4978750;28;20086;-73
2022/07/22 08:11:51;;;;;;;8.23;6.93;;;24.80;99.90;;;;;;4978275;28;20031;-72
2022/07/22 08:14:17;;;;;;;10.80;7.38;;;24.90;99.90;;;;;;4977588;28;20031;-73
2022/07/22 08:16:43;;;;;;;9.52;6.88;;;24.90;99.90;;;;;;4979258;28;20170;-73
2022/07/22 08:19:08;;;;;;;8.38;6.85;;;25.10;99.90;;;;;;4979949;28;20047;-73
2022/07/22 08:21:34;;;;;;;8.65;6.57;;;25.30;99.60;;;;;;4978891;28;20031;-73
2022/07/22 08:24:00;;;;;;;9.75;6.88;;;25.50;99.60;;;;;;4978460;28;20045;-73
2022/07/22 08:26:26;;;;;;;9.32;7.22;;;25.60;97.80;;;;;;4978927;28;20027;-72
2022/07/22 08:28:51;;;;;;;7.95;6.88;;;25.50;98.30;;;;;;4978790;28;20043;-74
2022/07/22 08:31:17;;;;;;;8.30;6.88;;;25.50;98.30;;;;;;4977762;28;20106;-74
2022/07/22 08:33:42;;;;;;;9.70;6.85;;;25.70;98.00;;;;;;4977608;28;20027;-74
2022/07/22 08:36:08;;;;;;;9.48;7.07;;;25.80;97.30;;;;;;4977508;28;20031;-74
2022/07/22 08:38:34;;;;;;;7.60;6.57;;;25.90;96.40;;;;;;4977736;28;20053;-74
2022/07/22 08:41:01;;;;;;;11.63;8.30;;;26.20;96.60;;;;;;4977316;28;20520;-74
2022/07/22 08:43:27;;;;;;;9.60;7.22;;;25.90;96.40;;;;;;4977732;28;20041;-74
2022/07/22 08:45:53;;;;;;;9.45;8.18;;;26.00;96.30;;;;;;4977368;28;20042;-74
2022/07/22 08:48:19;;;;;;;8.85;7.35;;;26.10;96.00;;;;;;4977740;28;20490;-74
2022/07/22 08:50:44;;;;;;;11.65;7.22;;;26.20;96.00;;;;;;4976423;28;20035;-74
2022/07/22 08:53:11;;;;;;;7.72;6.80;;;26.40;96.30;;;;;;4977879;28;20046;-75
2022/07/22 08:55:42;;;;;;;9.68;6.88;;;26.60;94.80;;;;;;4977512;28;20035;-74
2022/07/22 08:58:08;;;;;;;14.55;6.72;;;26.80;94.60;;;;;;4977961;28;20785;-74
2022/07/22 09:00:34;;;;;;;8.80;6.97;;;27.00;93.80;;;;;;4977038;28;20043;-73
2022/07/22 09:03:00;;;;;;;8.73;7.32;;;27.20;93.50;;;;;;4978064;28;20077;-74
2022/07/22 09:05:33;;;;;;;7.47;6.68;;;27.30;93.60;;;;;;4977079;28;20497;-74
2022/07/22 09:07:59;;;;;;;7.35;6.57;;;27.30;93.90;;;;;;4977012;28;20090;-74
2022/07/22 09:10:30;;;;;;;8.38;7.35;;;27.50;92.60;;;;;;4975455;28;20054;-74
2022/07/22 09:12:59;;;;;;;8.18;6.97;;;27.60;92.20;;;;;;4977059;28;20499;-74
2022/07/22 09:15:35;;;;;;;9.98;7.25;;;27.70;90.90;;;;;;4975175;28;20035;-74
2022/07/22 09:18:02;;;;;;;8.23;6.72;;;27.60;91.30;;;;;;4976915;28;20363;-74
2022/07/22 09:20:29;;;;;;;7.40;6.70;;;27.60;92.00;;;;;;4976512;28;20031;-73
2022/07/22 09:22:55;;;;;;;7.63;6.60;;;27.80;91.60;;;;;;4976655;28;20035;-73
2022/07/22 09:25:33;;;;;;;7.60;6.90;;;27.90;91.70;;;;;;4976417;28;20031;-73
2022/07/22 09:28:05;;;;;;;9.30;6.95;;;27.90;90.70;;;;;;4977102;28;20043;-74
2022/07/22 09:30:32;;;;;;;8.82;7.13;;;28.00;88.60;;;;;;4976624;28;20059;-73
2022/07/22 09:32:57;;;;;;;8.00;6.57;;;28.30;90.00;;;;;;4976387;28;20039;-73
2022/07/22 09:35:24;;;;;;;8.75;6.75;;;28.40;88.50;;;;;;4976285;28;20035;-73
2022/07/22 09:38:00;;;;;;;10.77;6.68;;;28.40;88.50;;;;;;4974886;28;20039;-73
2022/07/22 09:40:34;;;;;;;7.15;6.45;;;28.30;87.80;;;;;;4976228;28;20414;-73
2022/07/22 09:43:03;;;;;;;9.35;7.32;;;28.40;88.60;;;;;;4975270;28;20102;-71
2022/07/22 09:45:30;;;;;;;7.28;6.40;;;28.80;86.10;;;;;;4974852;28;20090;-74
2022/07/22 09:47:58;;;;;;;11.75;7.13;;;28.90;85.90;;;;;;4975327;28;20039;-75
2022/07/22 09:50:26;;;;;;;8.15;6.25;;;29.30;84.90;;;;;;4978565;28;20090;-73
2022/07/22 09:52:55;;;;;;;8.32;6.72;;;29.30;84.50;;;;;;4977097;28;20082;-73
2022/07/22 09:55:23;;;;;;;7.90;7.10;;;29.30;82.90;;;;;;4977154;28;20344;-73
2022/07/22 09:57:51;;;;;;;7.28;6.57;;;29.10;85.20;;;;;;4976308;28;20513;-75
2022/07/22 10:00:19;;;;;;;9.45;7.10;;;29.20;83.50;;;;;;4975832;28;20051;-73
2022/07/22 10:02:46;;;;;;;9.57;7.20;;;29.40;84.20;;;;;;4976251;28;20027;-74
2022/07/22 10:05:14;;;;;;;9.48;6.95;;;29.30;85.00;;;;;;4975921;28;20039;-73
2022/07/22 10:07:42;;;;;;;7.30;6.40;;;29.60;81.90;;;;;;4974791;28;20039;-73
2022/07/22 10:10:09;;;;;;;7.88;7.07;;;29.50;80.90;;;;;;4976187;28;20454;-74
2022/07/22 10:12:37;;;;;;;7.43;6.22;;;29.50;82.30;;;;;;4976158;28;20043;-73
2022/07/22 10:15:03;;;;;;;8.40;6.20;;;29.60;81.40;;;;;;4976778;28;20106;-77
2022/07/22 10:17:29;;;;;;;9.70;6.38;;;29.80;82.30;;;;;;4975834;28;20118;-73
2022/07/22 10:19:56;;;;;;;7.30;6.60;;;30.20;80.80;;;;;;4975333;28;20077;-75
2022/07/22 10:22:39;;;;;;;7.32;6.25;;;30.60;79.60;;;;;;4975926;28;20070;-74
2022/07/22 10:25:06;;;;;;;7.50;6.55;;;30.90;78.70;;;;;;4975919;28;20066;-74
2022/07/22 10:27:53;;;;;;;10.32;6.90;;;30.90;77.10;;;;;;4976576;28;20040;-74
2022/07/22 10:30:28;;;;;;;7.85;6.20;;;30.40;77.10;;;;;;4974315;28;20039;-74
2022/07/22 10:33:04;;;;;;;7.25;6.43;;;30.50;76.50;;;;;;4976146;28;20027;-74
2022/07/22 10:35:30;;;;;;;7.40;6.60;;;30.60;78.10;;;;;;4976201;28;20035;-74
2022/07/22 10:37:58;;;;;;;7.95;6.57;;;30.40;77.00;;;;;;4976037;28;20043;-74
2022/07/22 10:40:27;;;;;;;7.57;6.85;;;30.70;76.40;;;;;;4975303;28;20472;-76
2022/07/22 10:43:08;;;;;;;7.13;6.43;;;30.50;76.90;;;;;;4976187;28;20031;-75
2022/07/22 10:45:40;;;;;;;7.57;6.10;;;30.90;76.40;;;;;;4976081;28;20063;-73
2022/07/22 10:48:10;;;;;;;7.15;6.30;;;31.20;77.20;;;;;;4975880;28;20405;-74
2022/07/22 10:50:37;;;;;;;7.00;6.30;;;31.30;75.00;;;;;;4974492;28;20042;-75
2022/07/22 10:53:17;;;;;;;9.18;6.53;;;31.70;72.70;;;;;;4975654;28;20031;-74
2022/07/22 10:56:01;;;;;;;7.35;6.50;;;31.90;72.50;;;;;;4975775;28;20032;-73
2022/07/22 10:58:33;;;;;;;6.90;6.13;;;31.90;72.90;;;;;;4976032;28;20035;-74
2022/07/22 11:01:08;;;;;;;7.47;6.18;;;32.00;72.50;;;;;;4975679;28;20114;-74
2022/07/22 11:03:35;;;;;;;7.55;6.22;;;32.10;71.00;;;;;;4975742;28;20035;-74
2022/07/22 11:06:27;;;;;;;7.63;6.13;;;32.00;71.90;;;;;;4975415;28;20027;-74
2022/07/22 11:08:58;;;;;;;8.50;6.28;;;32.20;71.00;;;;;;4975926;28;20070;-73
2022/07/22 11:11:31;;;;;;;7.80;6.28;;;32.00;70.40;;;;;;4975196;28;20409;-74
2022/07/22 11:13:57;;;;;;;6.63;5.93;;;32.10;70.50;;;;;;4975360;28;20078;-73
2022/07/22 11:16:25;;;;;;;8.32;6.28;;;32.20;69.90;;;;;;4976099;28;20027;-74
2022/07/22 11:18:53;;;;;;;8.45;6.80;;;32.60;69.20;;;;;;4975398;28;20797;-74
2022/07/22 11:21:22;;;;;;;10.68;6.75;;;32.60;68.70;;;;;;4976784;28;20031;-74
2022/07/22 11:23:51;;;;;;;6.90;6.20;;;32.80;69.60;;;;;;4977496;28;20405;-74
2022/07/22 11:26:19;;;;;;;7.25;5.90;;;33.00;70.30;;;;;;4975101;28;20035;-74
2022/07/22 11:28:45;;;;;;;6.82;6.10;;;32.90;69.30;;;;;;4975334;28;20054;-74
2022/07/22 11:31:15;;;;;;;7.75;6.43;;;33.00;70.40;;;;;;4977539;28;20031;-74
2022/07/22 11:33:40;;;;;;;6.72;6.13;;;32.90;69.20;;;;;;4978905;28;20086;-74
2022/07/22 11:36:09;;;;;;;6.53;5.93;;;33.00;69.80;;;;;;4978459;28;22552;-74
2022/07/22 11:38:49;;;;;;;7.88;6.35;;;33.10;67.80;;;;;;4978649;28;20102;-74
2022/07/22 11:41:16;;;;;;;7.20;6.50;;;33.30;68.00;;;;;;4978464;28;20046;-74
2022/07/22 11:43:48;;;;;;;7.88;6.40;;;33.40;65.90;;;;;;4978910;28;20035;-74
2022/07/22 11:46:15;;;;;;;8.10;6.22;;;33.70;66.10;;;;;;4978735;28;20042;-74
2022/07/22 11:48:42;;;;;;;8.05;6.40;;;33.30;67.40;;;;;;4978778;28;20633;-74
2022/07/22 11:51:12;;;;;;;7.20;6.50;;;33.50;67.10;;;;;;4978341;28;20027;-74
2022/07/22 11:53:39;;;;;;;7.50;6.38;;;33.50;65.00;;;;;;4978684;28;20098;-74
2022/07/22 11:56:06;;;;;;;7.03;6.43;;;33.70;68.50;;;;;;4978490;28;20031;-74
2022/07/22 11:58:44;;;;;;;8.10;6.28;;;33.80;65.30;;;;;;4974490;28;20493;-74
2022/07/22 12:01:15;;;;;;;7.68;6.13;;;33.90;65.90;;;;;;4967197;28;20131;-75
2022/07/22 12:03:46;;;;;;;7.13;6.25;;;33.60;65.00;;;;;;4967308;28;20106;-74
2022/07/22 12:06:14;;;;;;;7.47;6.20;;;33.80;65.40;;;;;;4968053;28;20031;-74
2022/07/22 12:08:42;;;;;;;7.32;6.32;;;34.10;63.70;;;;;;4967573;28;20488;-74
2022/07/22 12:11:10;;;;;;;7.13;6.40;;;34.40;61.90;;;;;;4975376;28;20074;-74
2022/07/22 12:13:35;;;;;;;7.50;6.68;;;34.40;62.50;;;;;;4978295;28;20045;-74
2022/07/22 12:16:20;;;;;;;7.10;6.47;;;34.30;65.70;;;;;;4978456;28;20035;-74
2022/07/22 12:18:57;;;;;;;7.85;6.50;;;34.20;63.20;;;;;;4979009;28;20039;-74
2022/07/22 12:21:25;;;;;;;7.78;6.57;;;34.10;62.30;;;;;;4978723;28;20031;-74
2022/07/22 12:24:05;;;;;;;7.25;6.45;;;34.10;61.30;;;;;;4978652;28;20038;-74
2022/07/22 12:26:46;;;;;;;7.93;6.22;;;34.20;62.70;;;;;;4978522;28;20063;-74
2022/07/22 12:29:16;;;;;;;7.72;6.63;;;34.40;65.90;;;;;;4978202;28;20047;-74
2022/07/22 12:31:48;;;;;;;6.93;6.32;;;34.70;62.50;;;;;;4978140;28;20074;-74
2022/07/22 12:34:14;;;;;;;6.90;6.13;;;34.70;61.70;;;;;;4977898;28;20046;-74
2022/07/22 12:36:47;;;;;;;6.82;6.00;;;34.90;60.70;;;;;;4978788;28;20042;-74
2022/07/22 12:39:14;;;;;;;8.95;6.32;;;35.20;61.90;;;;;;4976559;28;20044;-74
2022/07/22 12:41:46;;;;;;;6.28;5.72;;;35.20;60.80;;;;;;4977379;28;20038;-74
2022/07/22 12:44:23;;;;;;;8.52;6.35;;;35.40;59.70;;;;;;4976766;28;20047;-74
2022/07/22 12:46:53;;;;;;;6.97;6.28;;;35.60;59.90;;;;;;4978487;28;20521;-75
2022/07/22 12:49:25;;;;;;;6.93;6.05;;;35.60;58.70;;;;;;4977963;28;20040;-74
2022/07/22 12:52:08;;;;;;;6.78;6.00;;;35.50;57.90;;;;;;4976451;28;20489;-74
2022/07/22 12:54:35;;;;;;;7.90;6.22;;;35.20;59.70;;;;;;4977834;28;20047;-74
2022/07/22 12:57:00;;;;;;;8.57;6.22;;;35.30;57.90;;;;;;4977987;28;20091;-74
2022/07/22 12:59:26;;;;;;;8.10;6.00;;;35.10;60.00;;;;;;4977726;28;20078;-74
2022/07/22 13:01:52;;;;;;;8.52;5.97;;;35.20;61.30;;;;;;4977481;28;20040;-74
2022/07/22 13:04:17;;;;;;;9.63;6.30;;;35.40;58.90;;;;;;4977537;28;20039;-74
2022/07/22 13:06:43;;;;;;;8.73;6.25;;;35.40;57.60;;;;;;4977672;28;20031;-74
2022/07/22 13:09:08;;;;;;;7.07;6.20;;;35.40;59.40;;;;;;4977685;28;20097;-74
2022/07/22 13:11:39;;;;;;;6.47;5.80;;;35.60;58.20;;;;;;4977649;28;20027;-74
2022/07/22 13:14:05;;;;;;;6.18;5.68;;;35.80;62.70;;;;;;4977336;28;20028;-74
2022/07/22 13:16:31;;;;;;;8.30;6.22;;;35.80;56.50;;;;;;4977408;28;20042;-74
2022/07/22 13:18:56;;;;;;;9.30;6.03;;;35.90;57.10;;;;;;4977063;28;20047;-75
2022/07/22 13:21:22;;;;;;;7.00;5.72;;;35.80;56.10;;;;;;4976732;28;20031;-75
2022/07/22 13:23:47;;;;;;;6.45;5.85;;;35.50;58.60;;;;;;4977171;28;20058;-74
2022/07/22 13:26:13;;;;;;;7.22;5.93;;;36.00;57.20;;;;;;4977024;28;20035;-75
2022/07/22 13:28:38;;;;;;;6.78;5.95;;;36.70;56.80;;;;;;4977161;28;20533;-74
2022/07/22 13:31:04;;;;;;;7.07;6.05;;;37.10;53.80;;;;;;4977030;28;20134;-75
2022/07/22 13:33:29;;;;;;;6.45;5.85;;;36.90;54.50;;;;;;4976833;28;20453;-75
2022/07/22 13:35:55;;;;;;;6.85;5.72;;;37.60;54.70;;;;;;4976505;28;20043;-75
2022/07/22 13:38:20;;;;;;;6.35;5.75;;;38.00;52.80;;;;;;4976898;28;20051;-74
2022/07/22 13:40:52;;;;;;;6.57;5.88;;;38.40;54.10;;;;;;4976609;28;20039;-75
2022/07/22 13:43:22;;;;;;;6.43;5.68;;;39.00;53.70;;;;;;4974062;28;20420;-75
2022/07/22 13:45:48;;;;;;;6.70;5.85;;;39.10;51.30;;;;;;4976711;28;20074;-75
2022/07/22 13:48:14;;;;;;;6.57;5.95;;;39.60;49.50;;;;;;4976617;28;20078;-75
2022/07/22 13:50:39;;;;;;;7.00;5.78;;;39.90;49.10;;;;;;4975947;28;20031;-75
2022/07/22 13:53:05;;;;;;;6.07;5.47;;;40.50;49.90;;;;;;4976901;28;20719;-80
2022/07/22 13:55:30;;;;;;;5.68;5.18;;;40.20;48.30;;;;;;4974868;28;20035;-77
2022/07/22 13:57:57;;;;;;;6.20;5.60;;;40.30;48.50;;;;;;4975204;28;20413;-76
2022/07/22 14:00:26;;;;;;;6.15;5.65;;;41.50;47.70;;;;;;4976156;28;20036;-76
2022/07/22 14:02:52;;;;;;;5.93;5.43;;;42.40;45.60;;;;;;4977088;28;20337;-75
2022/07/22 14:05:17;;;;;;;6.00;5.40;;;42.20;47.30;;;;;;4976983;28;20556;-74
2022/07/22 14:07:44;;;;;;;6.47;5.80;;;42.40;46.30;;;;;;4976895;28;20038;-77
2022/07/22 14:10:11;;;;;;;5.90;5.40;;;42.50;43.80;;;;;;4976571;28;20031;-76
2022/07/22 14:12:36;;;;;;;6.32;5.72;;;42.70;45.40;;;;;;4974988;28;20036;-77
2022/07/22 14:15:02;;;;;;;6.13;5.40;;;42.90;43.70;;;;;;4976449;28;20039;-76
2022/07/22 14:17:28;;;;;;;6.53;5.70;;;42.50;43.70;;;;;;4976377;28;20039;-77
2022/07/22 14:19:54;;;;;;;7.22;5.88;;;42.10;45.20;;;;;;4974524;28;22686;-77
2022/07/22 14:22:20;;;;;;;7.22;5.50;;;42.10;46.60;;;;;;4976402;28;20114;-77
2022/07/22 14:24:45;;;;;;;6.47;5.32;;;42.50;47.20;;;;;;4976325;28;20070;-77
2022/07/22 14:27:11;;;;;;;5.85;5.35;;;43.70;43.30;;;;;;4976327;28;20035;-77
2022/07/22 14:29:36;;;;;;;6.43;5.90;;;43.50;44.20;;;;;;4976769;28;20031;-76
2022/07/22 14:32:02;;;;;;;6.00;5.45;;;43.60;42.80;;;;;;4976820;28;20063;-76
2022/07/22 14:34:28;;;;;;;6.15;5.57;;;43.40;44.60;;;;;;4977686;28;20082;-76
2022/07/22 14:36:53;;;;;;;6.25;5.65;;;43.40;42.50;;;;;;4976046;28;20071;-77
2022/07/22 14:39:18;;;;;;;6.20;5.65;;;43.30;43.30;;;;;;4975391;28;25493;-76
2022/07/22 14:41:46;;;;;;;5.53;5.03;;;43.40;42.10;;;;;;4974313;28;20050;-77
2022/07/22 14:44:12;;;;;;;6.70;5.68;;;42.40;43.50;;;;;;4975942;28;20039;-77
2022/07/22 14:46:38;;;;;;;7.75;5.80;;;43.00;43.70;;;;;;4974527;28;20031;-77
2022/07/22 14:49:03;;;;;;;6.20;5.70;;;44.10;43.70;;;;;;4975931;28;20490;-78
2022/07/22 14:51:29;;;;;;;7.43;5.95;;;44.10;42.40;;;;;;4974504;28;20031;-77
2022/07/22 14:53:54;;;;;;;6.20;5.70;;;44.10;40.70;;;;;;4975437;28;20039;-77
2022/07/22 14:56:20;;;;;;;6.22;5.72;;;44.40;41.80;;;;;;4975906;28;20045;-78
2022/07/22 14:58:46;;;;;;;6.90;6.20;;;44.40;41.50;;;;;;4975686;28;20054;-77
2022/07/22 15:01:12;;;;;;;6.35;5.85;;;44.30;40.90;;;;;;4975542;28;20090;-77
2022/07/22 15:03:37;;;;;;;6.55;5.95;;;44.40;40.30;;;;;;4975724;28;20517;-78
2022/07/22 15:06:03;;;;;;;6.70;5.90;;;43.90;40.80;;;;;;4975050;28;20035;-78
2022/07/22 15:08:28;;;;;;;6.35;5.85;;;44.40;41.50;;;;;;4976441;28;20466;-77
2022/07/22 15:10:54;;;;;;;6.05;5.45;;;44.10;39.20;;;;;;4975762;28;20043;-77
2022/07/22 15:13:20;;;;;;;6.05;5.55;;;44.20;39.10;;;;;;4975891;28;20466;-76
2022/07/22 15:15:46;;;;;;;6.25;5.65;;;44.60;40.50;;;;;;4975816;28;20409;-77
2022/07/22 15:18:11;;;;;;;6.90;6.20;;;45.30;38.60;;;;;;4975557;28;20023;-77
2022/07/22 15:20:37;;;;;;;6.45;5.53;;;45.50;38.40;;;;;;4975494;28;20478;-77
2022/07/22 15:23:03;;;;;;;6.90;6.30;;;45.90;38.70;;;;;;4975591;28;20027;-78
2022/07/22 15:25:29;;;;;;;6.10;5.53;;;46.70;38.00;;;;;;4975100;28;20039;-77
2022/07/22 15:27:54;;;;;;;6.90;6.18;;;46.80;37.60;;;;;;4974212;28;20163;-75
2022/07/22 15:30:21;;;;;;;5.95;5.43;;;46.50;39.60;;;;;;4975293;28;20058;-75
2022/07/22 15:32:46;;;;;;;6.30;5.80;;;46.40;38.50;;;;;;4975401;28;21165;-75
2022/07/22 15:35:12;;;;;;;7.88;6.00;;;46.70;37.50;;;;;;4975099;28;20047;-75
2022/07/22 15:37:38;;;;;;;6.82;5.45;;;47.00;36.40;;;;;;4975167;28;20478;-75
2022/07/22 15:40:09;;;;;;;5.78;5.22;;;46.70;37.00;;;;;;4975454;28;20032;-74
2022/07/22 15:42:35;;;;;;;7.38;5.80;;;46.20;37.10;;;;;;4975259;28;20494;-74
2022/07/22 15:45:01;;;;;;;6.40;5.50;;;46.00;38.00;;;;;;4975597;28;20035;-75
2022/07/22 15:47:27;;;;;;;6.25;5.53;;;46.30;37.20;;;;;;4973798;28;20035;-79
2022/07/22 15:49:52;;;;;;;6.15;5.55;;;46.00;37.40;;;;;;4973799;28;20047;-75
2022/07/22 15:52:18;;;;;;;6.03;5.55;;;46.90;37.50;;;;;;4974760;28;20038;-75
2022/07/22 15:54:43;;;;;;;5.90;5.30;;;46.90;35.80;;;;;;4973476;28;20501;-75
2022/07/22 15:59:53;;;;;;;6.18;5.57;;;46.80;35.60;;;;;;4975134;28;20122;-75
2022/07/22 16:02:19;;;;;;;5.75;5.22;;;46.50;35.80;;;;;;4974646;28;20485;-76
2022/07/22 16:04:44;;;;;;;6.07;5.50;;;46.70;36.50;;;;;;4974447;28;20331;-76
2022/07/22 16:07:10;;;;;;;5.85;5.30;;;46.70;36.10;;;;;;4973296;28;26221;-75
2022/07/22 16:09:35;;;;;;;8.52;6.13;;;46.80;35.50;;;;;;4975260;28;20039;-76
2022/07/22 16:12:01;;;;;;;5.97;5.47;;;46.40;38.40;;;;;;4974809;28;20035;-76
2022/07/22 16:14:27;;;;;;;6.97;6.28;;;45.80;37.80;;;;;;4974636;28;25915;-76
2022/07/22 16:16:53;;;;;;;13.15;5.53;;;44.10;37.40;;;;;;4974921;28;20067;-75
2022/07/22 16:19:18;;;;;;;11.52;5.93;;;42.00;41.10;;;;;;4978293;28;20107;-75
2022/07/22 16:21:44;;;;;;;9.18;5.50;;;40.90;41.40;;;;;;4977528;28;22226;-75
2022/07/22 16:24:09;;;;;;;7.25;5.70;;;40.30;43.20;;;;;;4977959;28;20035;-75
2022/07/22 16:26:35;;;;;;;15.25;5.85;;;40.10;43.70;;;;;;4976239;28;20415;-75
2022/07/22 16:29:00;;;;;;;18.50;6.35;;;40.50;42.80;;;;;;4977499;28;20035;-75
2022/07/22 16:31:26;;;;;;;7.03;5.43;;;40.10;44.30;;;;;;4977820;28;20047;-75
2022/07/22 16:33:53;;;;;;;9.73;5.78;;;39.40;44.30;;;;;;4977945;28;20054;-76
2022/07/22 16:36:18;;;;;;;6.63;5.45;;;39.10;45.50;;;;;;4977715;28;20042;-75
2022/07/22 16:38:44;;;;;;;7.75;5.20;;;38.60;44.70;;;;;;4976397;28;20038;-75
2022/07/22 16:41:09;;;;;;;7.10;5.15;;;37.80;46.10;;;;;;4977429;28;20059;-75
2022/07/22 16:43:35;;;;;;;7.10;5.82;;;36.50;47.40;;;;;;4977408;28;20513;-74